LGAD/PYR METAR and TAF weather

Enter ICAO airport designator
Station Type Date Time Source
LGAD METAR 2021/05/14 21:50 UTC NOAA

LGAD 142150Z 00000KT CAVOK 14/13 Q1015


Station Type Date Time Source
LGAD Decoded METAR 2021/05/14 21:50 UTC NOAA

Andravida Airport , Greece (LGAD) 37-55N 021-17E 14M
May 14, 2021 - 05:50 PM EDT / 2021.05.14 2150 UTC
Wind: Calm:0
Visibility: greater than 7 mile(s):0
Temperature: 57 F (14 C)
Dew Point: 55 F (13 C)
Relative Humidity: 93%
Pressure (altimeter): 29.97 in. Hg (1015 hPa)
ob: LGAD 142150Z 00000KT CAVOK 14/13 Q1015
cycle: 22

Station Type Date Time Source
LGAD TAF 2020/03/18 09:39 UTC NOAA

TAF TAF LGAD 180800Z 1809/1821 30006KT 9999 FEW030
BECMG 1816/1818 07010KT

Example: see airport list